createdAt,value
2018-12-13T00:01:06.235Z,955.23
2018-12-13T00:03:32.523Z,955.27
2018-12-13T00:05:58.818Z,955.29
2018-12-13T00:08:25.089Z,955.32
2018-12-13T00:10:51.386Z,955.35
2018-12-13T00:13:17.679Z,955.35
2018-12-13T00:15:43.979Z,955.31
2018-12-13T00:18:10.324Z,955.31
2018-12-13T00:20:36.609Z,955.36
2018-12-13T00:23:02.920Z,955.38
2018-12-13T00:25:29.203Z,955.33
2018-12-13T00:27:55.496Z,955.40
2018-12-13T00:30:21.819Z,955.37
2018-12-13T00:32:48.127Z,955.39
2018-12-13T00:35:14.402Z,955.34
2018-12-13T00:37:40.681Z,955.36
2018-12-13T00:40:06.952Z,955.34
2018-12-13T00:42:33.252Z,955.38
2018-12-13T00:44:59.561Z,955.38
2018-12-13T00:47:25.870Z,955.38
2018-12-13T00:49:52.148Z,955.36
2018-12-13T00:52:18.501Z,955.33
2018-12-13T00:54:44.793Z,955.30
2018-12-13T00:57:11.100Z,955.36
2018-12-13T00:59:37.382Z,955.33
2018-12-13T01:02:03.694Z,955.33
2018-12-13T01:04:29.978Z,955.35
2018-12-13T01:06:56.286Z,955.34
2018-12-13T01:09:22.584Z,955.15
2018-12-13T01:11:48.868Z,955.24
2018-12-13T01:14:15.155Z,955.27
2018-12-13T01:16:41.434Z,955.26
2018-12-13T01:19:07.731Z,955.27
2018-12-13T01:21:34.017Z,955.30
2018-12-13T01:24:00.322Z,955.34
2018-12-13T01:26:26.648Z,955.25
2018-12-13T01:28:52.937Z,955.33
2018-12-13T01:31:19.222Z,955.33
2018-12-13T01:33:45.524Z,955.39
2018-12-13T01:36:11.882Z,955.42
2018-12-13T01:38:38.171Z,955.42
2018-12-13T01:41:04.443Z,955.38
2018-12-13T01:43:30.738Z,955.49
2018-12-13T01:45:57.015Z,955.41
2018-12-13T01:48:23.312Z,955.44
2018-12-13T01:50:49.597Z,955.44
2018-12-13T01:53:15.882Z,955.42
2018-12-13T01:55:42.183Z,955.37
2018-12-13T01:58:08.487Z,955.44
2018-12-13T02:00:34.766Z,955.40
2018-12-13T02:03:01.061Z,955.43
2018-12-13T02:05:27.374Z,955.43
2018-12-13T02:07:53.659Z,955.35
2018-12-13T02:10:19.962Z,955.33
2018-12-13T02:12:46.267Z,955.39
2018-12-13T02:15:12.568Z,955.26
2018-12-13T02:17:38.853Z,955.30
2018-12-13T02:20:05.150Z,955.26
2018-12-13T02:22:31.457Z,955.23
2018-12-13T02:24:57.735Z,955.24
2018-12-13T02:27:24.012Z,955.20
2018-12-13T02:29:50.329Z,955.22
2018-12-13T02:32:16.618Z,955.24
2018-12-13T02:34:42.911Z,955.27
2018-12-13T02:37:09.217Z,955.25
2018-12-13T02:39:35.488Z,955.18
2018-12-13T02:42:01.789Z,955.16
2018-12-13T02:44:28.092Z,955.20
2018-12-13T02:46:54.376Z,955.25
2018-12-13T02:49:20.651Z,955.22
2018-12-13T02:51:46.979Z,955.20
2018-12-13T02:54:13.251Z,955.18
2018-12-13T02:56:39.529Z,955.24
2018-12-13T02:59:05.841Z,955.21
2018-12-13T03:01:32.123Z,955.26
2018-12-13T03:03:58.421Z,955.32
2018-12-13T03:06:24.720Z,955.31
2018-12-13T03:08:50.984Z,955.30
2018-12-13T03:11:17.282Z,955.27
2018-12-13T03:13:43.581Z,955.28
2018-12-13T03:16:09.885Z,955.28
2018-12-13T03:18:36.188Z,955.28
2018-12-13T03:21:02.511Z,955.29
2018-12-13T03:23:28.772Z,955.36
2018-12-13T03:25:55.060Z,955.40
2018-12-13T03:28:21.341Z,955.39
2018-12-13T03:30:47.656Z,955.36
2018-12-13T03:33:13.989Z,955.36
2018-12-13T03:35:40.251Z,955.35
2018-12-13T03:38:06.523Z,955.35
2018-12-13T03:40:32.814Z,955.33
2018-12-13T03:42:59.104Z,955.39
2018-12-13T03:45:25.476Z,955.32
2018-12-13T03:47:51.740Z,955.31
2018-12-13T03:50:18.023Z,955.28
2018-12-13T03:52:44.310Z,955.24
2018-12-13T03:55:10.622Z,955.25
2018-12-13T03:57:36.902Z,955.17
2018-12-13T04:00:07.077Z,955.26
2018-12-13T04:02:33.363Z,955.25
2018-12-13T04:04:59.684Z,955.35
2018-12-13T04:07:27.830Z,955.38
2018-12-13T04:09:52.243Z,955.35
2018-12-13T04:12:18.557Z,955.32
2018-12-13T04:14:44.846Z,955.37
2018-12-13T04:17:11.148Z,955.41
2018-12-13T04:19:37.429Z,955.44
2018-12-13T04:22:03.749Z,955.45
2018-12-13T04:24:30.078Z,955.45
2018-12-13T04:26:56.341Z,955.49
2018-12-13T04:29:22.635Z,955.47
2018-12-13T04:31:48.920Z,955.45
2018-12-13T04:34:15.216Z,955.48
2018-12-13T04:36:41.498Z,955.46
2018-12-13T04:39:07.791Z,955.48
2018-12-13T04:41:34.127Z,955.52
2018-12-13T04:44:00.401Z,955.53
2018-12-13T04:46:26.693Z,955.60
2018-12-13T04:48:53.004Z,955.53
2018-12-13T04:51:19.305Z,955.45
2018-12-13T04:53:45.606Z,955.52
2018-12-13T04:56:12.695Z,955.55
2018-12-13T04:58:38.184Z,955.50
2018-12-13T05:01:04.472Z,955.51
2018-12-13T05:03:30.760Z,955.56
2018-12-13T05:05:57.027Z,955.53
2018-12-13T05:08:23.329Z,955.54
2018-12-13T05:10:49.607Z,955.59
2018-12-13T05:13:15.929Z,955.60
2018-12-13T05:15:42.223Z,955.53
2018-12-13T05:18:08.541Z,955.54
2018-12-13T05:20:34.843Z,955.57
2018-12-13T05:23:01.160Z,955.61
2018-12-13T05:25:27.442Z,955.67
2018-12-13T05:27:53.734Z,955.70
2018-12-13T05:30:20.040Z,955.64
2018-12-13T05:32:46.334Z,955.72
2018-12-13T05:35:12.693Z,955.68
2018-12-13T05:37:38.939Z,955.75
2018-12-13T05:40:05.237Z,955.76
2018-12-13T05:42:31.549Z,955.82
2018-12-13T05:44:57.850Z,955.76
2018-12-13T05:47:24.150Z,955.79
2018-12-13T05:49:50.447Z,955.80
2018-12-13T05:52:16.907Z,955.83
2018-12-13T05:54:43.194Z,955.84
2018-12-13T05:57:09.499Z,955.81
2018-12-13T05:59:35.781Z,955.88
2018-12-13T06:02:02.110Z,955.85
2018-12-13T06:04:28.392Z,955.85
2018-12-13T06:06:54.679Z,955.88
2018-12-13T06:09:20.977Z,955.80
2018-12-13T06:11:47.276Z,955.87
2018-12-13T06:14:13.573Z,955.80
2018-12-13T06:16:39.866Z,955.87
2018-12-13T06:19:06.153Z,955.81
2018-12-13T06:21:36.848Z,955.78
2018-12-13T06:23:58.745Z,955.70
2018-12-13T06:26:25.046Z,955.80
2018-12-13T06:28:51.334Z,955.88
2018-12-13T06:31:17.626Z,955.82
2018-12-13T06:33:43.908Z,955.78
2018-12-13T06:36:10.176Z,955.84
2018-12-13T06:38:36.479Z,955.85
2018-12-13T06:41:02.842Z,955.81
2018-12-13T06:43:29.065Z,955.80
2018-12-13T06:45:55.372Z,955.79
2018-12-13T06:48:21.670Z,955.70
2018-12-13T06:50:47.960Z,955.75
2018-12-13T06:53:14.287Z,955.76
2018-12-13T06:55:40.586Z,955.79
2018-12-13T06:58:06.866Z,955.82
2018-12-13T07:00:33.278Z,955.78
2018-12-13T07:02:59.561Z,955.79
2018-12-13T07:05:25.835Z,955.85
2018-12-13T07:07:52.170Z,955.83
2018-12-13T07:10:18.432Z,955.80
2018-12-13T07:12:44.714Z,955.81
2018-12-13T07:15:11.024Z,955.88
2018-12-13T07:17:37.327Z,955.87
2018-12-13T07:20:03.613Z,955.88
2018-12-13T07:22:29.929Z,955.88
2018-12-13T07:24:56.236Z,955.81
2018-12-13T07:27:22.527Z,955.93
2018-12-13T07:29:48.818Z,955.73
2018-12-13T07:32:15.101Z,955.93
2018-12-13T07:34:41.408Z,955.91
2018-12-13T07:37:07.695Z,955.95
2018-12-13T07:39:33.989Z,955.96
2018-12-13T07:42:00.290Z,955.95
2018-12-13T07:44:26.563Z,955.92
2018-12-13T07:46:52.874Z,955.89
2018-12-13T07:49:19.162Z,955.90
2018-12-13T07:51:45.447Z,955.91
2018-12-13T07:54:11.755Z,955.85
2018-12-13T07:56:38.051Z,955.84
2018-12-13T07:59:04.342Z,955.86
2018-12-13T08:01:30.633Z,955.86
2018-12-13T08:03:56.942Z,955.82
2018-12-13T08:06:23.222Z,955.87
2018-12-13T08:08:49.522Z,955.85
2018-12-13T08:11:15.824Z,955.86
2018-12-13T08:13:42.130Z,955.86
2018-12-13T08:16:08.407Z,955.89
2018-12-13T08:18:34.678Z,955.82
2018-12-13T08:21:00.979Z,955.78
2018-12-13T08:23:27.313Z,955.78
2018-12-13T08:25:53.597Z,955.80
2018-12-13T08:28:19.909Z,955.81
2018-12-13T08:30:46.181Z,955.78
2018-12-13T08:33:12.563Z,955.78
2018-12-13T08:35:38.861Z,955.88
2018-12-13T08:38:05.143Z,955.87
2018-12-13T08:40:31.482Z,955.88
2018-12-13T08:42:57.767Z,955.82
2018-12-13T08:45:24.405Z,955.86
2018-12-13T08:47:50.377Z,955.88
2018-12-13T08:50:16.665Z,955.86
2018-12-13T08:52:42.933Z,955.78
2018-12-13T08:55:09.218Z,955.79
2018-12-13T08:57:35.491Z,955.82
2018-12-13T09:00:01.798Z,955.79
2018-12-13T09:02:28.114Z,955.73
2018-12-13T09:04:54.397Z,955.80
2018-12-13T09:07:20.691Z,955.77
2018-12-13T09:09:46.988Z,955.71
2018-12-13T09:12:13.284Z,955.64
2018-12-13T09:14:39.582Z,955.63
2018-12-13T09:17:05.910Z,955.57
2018-12-13T09:19:32.204Z,955.56
2018-12-13T09:21:58.483Z,955.57
2018-12-13T09:24:24.765Z,955.55
2018-12-13T09:26:51.034Z,955.53
2018-12-13T09:29:17.318Z,955.49
2018-12-13T09:31:43.630Z,955.49
2018-12-13T09:34:09.904Z,955.43
2018-12-13T09:36:36.207Z,955.44
2018-12-13T09:39:02.502Z,955.31
2018-12-13T09:41:28.858Z,955.35
2018-12-13T09:43:55.139Z,955.23
2018-12-13T09:46:21.415Z,955.17
2018-12-13T09:48:47.718Z,955.18
2018-12-13T09:51:13.992Z,955.18
2018-12-13T09:53:40.281Z,955.16
2018-12-13T09:56:06.592Z,955.09
2018-12-13T09:58:32.947Z,955.07
2018-12-13T10:00:59.168Z,954.99
2018-12-13T10:03:25.458Z,954.98
2018-12-13T10:05:51.775Z,954.90
2018-12-13T10:08:18.112Z,954.99
2018-12-13T10:10:44.385Z,954.98
2018-12-13T10:13:10.832Z,955.04
2018-12-13T10:15:36.989Z,954.94
2018-12-13T10:18:03.280Z,954.98
2018-12-13T10:20:29.566Z,954.89
2018-12-13T10:22:55.880Z,954.87
2018-12-13T10:25:22.153Z,954.87
2018-12-13T10:27:48.493Z,954.71
2018-12-13T10:30:14.764Z,954.73
2018-12-13T10:32:41.067Z,954.63
2018-12-13T10:35:11.270Z,954.58
2018-12-13T10:37:33.661Z,954.50
2018-12-13T10:39:59.958Z,954.45
2018-12-13T10:42:26.239Z,954.47
2018-12-13T10:44:52.549Z,954.45
2018-12-13T10:47:18.829Z,954.45
2018-12-13T10:49:45.118Z,954.42
2018-12-13T10:52:11.424Z,954.29
2018-12-13T10:54:37.731Z,954.31
2018-12-13T10:57:04.017Z,954.25
2018-12-13T10:59:30.314Z,954.25
2018-12-13T11:01:56.606Z,954.18
2018-12-13T11:04:22.887Z,954.16
2018-12-13T11:06:49.200Z,954.17
2018-12-13T11:09:15.495Z,954.10
2018-12-13T11:11:41.772Z,954.11
2018-12-13T11:14:08.091Z,954.11
2018-12-13T11:16:34.383Z,954.10
2018-12-13T11:19:00.681Z,954.08
2018-12-13T11:21:26.960Z,954.08
2018-12-13T11:23:53.282Z,954.06
2018-12-13T11:26:19.561Z,954.05
2018-12-13T11:28:45.902Z,954.02
2018-12-13T11:31:12.137Z,954.03
2018-12-13T11:33:38.467Z,954.02
2018-12-13T11:36:04.777Z,953.95
2018-12-13T11:38:31.051Z,953.87
2018-12-13T11:40:57.349Z,953.92
2018-12-13T11:43:23.661Z,953.87
2018-12-13T11:45:49.964Z,953.88
2018-12-13T11:48:16.264Z,953.85
2018-12-13T11:50:42.546Z,953.80
2018-12-13T11:53:08.867Z,953.77
2018-12-13T11:55:35.165Z,953.80
2018-12-13T11:58:01.519Z,953.76
2018-12-13T12:00:27.806Z,953.79
2018-12-13T12:02:54.090Z,953.71
2018-12-13T12:05:20.386Z,953.79
2018-12-13T12:07:46.685Z,953.73
2018-12-13T12:10:12.982Z,953.80
2018-12-13T12:12:39.266Z,953.76
2018-12-13T12:15:05.559Z,953.69
2018-12-13T12:17:31.864Z,953.66
2018-12-13T12:19:58.168Z,953.75
2018-12-13T12:22:24.499Z,953.70
2018-12-13T12:24:50.770Z,953.59
2018-12-13T12:27:17.060Z,953.60
2018-12-13T12:29:43.349Z,953.55
2018-12-13T12:32:09.622Z,953.53
2018-12-13T12:34:35.939Z,953.51
2018-12-13T12:37:02.269Z,953.52
2018-12-13T12:39:28.531Z,953.56
2018-12-13T12:41:54.852Z,953.52
2018-12-13T12:44:21.141Z,953.50
2018-12-13T12:46:47.469Z,953.47
2018-12-13T12:49:13.750Z,953.50
2018-12-13T12:51:40.029Z,953.50
2018-12-13T12:54:06.314Z,953.51
2018-12-13T12:56:32.607Z,953.56
2018-12-13T12:58:58.894Z,953.61
2018-12-13T13:01:25.194Z,953.60
2018-12-13T13:03:51.471Z,953.60
2018-12-13T13:06:17.784Z,953.63
2018-12-13T13:08:44.064Z,953.73
2018-12-13T13:11:10.354Z,953.65
2018-12-13T13:13:36.674Z,953.64
2018-12-13T13:16:02.960Z,953.68
2018-12-13T13:18:29.230Z,953.60
2018-12-13T13:20:55.525Z,953.56
2018-12-13T13:23:21.810Z,953.38
2018-12-13T13:25:48.135Z,953.61
2018-12-13T13:28:14.427Z,953.61
2018-12-13T13:30:40.720Z,953.65
2018-12-13T13:33:07.011Z,953.69
2018-12-13T13:35:33.302Z,953.71
2018-12-13T13:37:59.599Z,953.80
2018-12-13T13:40:25.889Z,953.79
2018-12-13T13:42:52.189Z,953.83
2018-12-13T13:45:18.463Z,953.92
2018-12-13T13:47:44.752Z,953.88
2018-12-13T13:50:11.040Z,953.89
2018-12-13T13:52:37.382Z,953.84
2018-12-13T13:55:03.660Z,953.84
2018-12-13T13:57:29.945Z,953.81
2018-12-13T13:59:56.259Z,953.79
2018-12-13T14:02:22.569Z,953.76
2018-12-13T14:04:48.845Z,953.82
2018-12-13T14:07:15.158Z,953.82
2018-12-13T14:09:41.458Z,953.76
2018-12-13T14:12:07.754Z,953.71
2018-12-13T14:14:34.036Z,953.64
2018-12-13T14:17:00.341Z,953.67
2018-12-13T14:19:26.634Z,953.61
2018-12-13T14:21:52.922Z,953.66
2018-12-13T14:24:19.195Z,953.74
2018-12-13T14:26:45.505Z,953.72
2018-12-13T14:29:11.783Z,953.66
2018-12-13T14:31:38.078Z,953.78
2018-12-13T14:34:04.379Z,953.81
2018-12-13T14:36:30.695Z,953.75
2018-12-13T14:38:56.976Z,953.74
2018-12-13T14:41:23.317Z,953.73
2018-12-13T14:43:49.606Z,953.78
2018-12-13T14:46:15.891Z,953.72
2018-12-13T14:48:42.166Z,953.71
2018-12-13T14:51:08.481Z,953.74
2018-12-13T14:53:34.752Z,953.71
2018-12-13T14:56:01.042Z,953.68
2018-12-13T14:58:27.326Z,953.62
2018-12-13T15:00:53.639Z,953.55
2018-12-13T15:03:19.938Z,953.53
2018-12-13T15:05:46.252Z,953.53
2018-12-13T15:08:12.543Z,953.51
2018-12-13T15:10:38.831Z,953.52
2018-12-13T15:13:05.117Z,953.51
2018-12-13T15:15:31.429Z,953.60
2018-12-13T15:17:57.716Z,953.70
2018-12-13T15:20:24.009Z,953.73
2018-12-13T15:22:50.286Z,953.64
2018-12-13T15:25:16.565Z,953.55
2018-12-13T15:27:42.866Z,953.73
2018-12-13T15:30:10.136Z,953.75
2018-12-13T15:32:36.417Z,953.73
2018-12-13T15:35:02.715Z,953.73
2018-12-13T15:37:29.023Z,953.68
2018-12-13T15:39:57.357Z,953.71
2018-12-13T15:42:21.610Z,953.74
2018-12-13T15:44:47.902Z,953.74
2018-12-13T15:47:14.205Z,953.73
2018-12-13T15:49:40.484Z,953.75
2018-12-13T15:52:06.781Z,953.76
2018-12-13T15:54:33.072Z,953.73
2018-12-13T15:56:59.388Z,953.74
2018-12-13T15:59:25.673Z,953.72
2018-12-13T16:01:51.954Z,953.73
2018-12-13T16:04:18.279Z,953.75
2018-12-13T16:06:44.554Z,953.81
2018-12-13T16:09:10.854Z,953.73
2018-12-13T16:11:37.149Z,953.66
2018-12-13T16:14:03.426Z,953.66
2018-12-13T16:16:29.750Z,953.60
2018-12-13T16:18:56.036Z,953.61
2018-12-13T16:21:22.325Z,953.64
2018-12-13T16:23:48.614Z,953.61
2018-12-13T16:26:14.898Z,953.59
2018-12-13T16:28:41.186Z,953.49
2018-12-13T16:31:07.465Z,953.45
2018-12-13T16:33:33.745Z,953.50
2018-12-13T16:36:00.025Z,953.49
2018-12-13T16:38:26.346Z,953.49
2018-12-13T16:40:52.660Z,953.52
2018-12-13T16:43:19.019Z,953.44
2018-12-13T16:45:45.253Z,953.50
2018-12-13T16:48:11.560Z,953.60
2018-12-13T16:50:37.854Z,953.51
2018-12-13T16:53:04.129Z,953.65
2018-12-13T16:55:30.422Z,953.53
2018-12-13T16:57:56.701Z,953.52
2018-12-13T17:00:22.996Z,953.57
2018-12-13T17:02:49.300Z,953.50
2018-12-13T17:05:15.587Z,953.46
2018-12-13T17:07:41.890Z,953.47
2018-12-13T17:10:08.183Z,953.46
2018-12-13T17:12:34.471Z,953.48
2018-12-13T17:15:00.755Z,953.51
2018-12-13T17:17:27.068Z,953.50
2018-12-13T17:19:53.346Z,953.48
2018-12-13T17:22:19.639Z,953.51
2018-12-13T17:24:45.914Z,953.51
2018-12-13T17:27:12.210Z,953.53
2018-12-13T17:29:38.484Z,953.50
2018-12-13T17:32:04.773Z,953.50
2018-12-13T17:34:31.066Z,953.47
2018-12-13T17:36:57.409Z,953.45
2018-12-13T17:39:23.702Z,953.49
2018-12-13T17:41:50.008Z,953.55
2018-12-13T17:44:16.285Z,953.57
2018-12-13T17:46:42.581Z,953.63
2018-12-13T17:49:08.877Z,953.70
2018-12-13T17:51:35.159Z,953.78
2018-12-13T17:54:01.447Z,953.74
2018-12-13T17:56:27.733Z,953.65
2018-12-13T17:58:54.012Z,953.70
2018-12-13T18:01:20.308Z,953.66
2018-12-13T18:03:46.613Z,953.66
2018-12-13T18:06:12.912Z,953.69
2018-12-13T18:08:39.192Z,953.72
2018-12-13T18:11:05.481Z,953.67
2018-12-13T18:13:31.781Z,953.71
2018-12-13T18:15:58.069Z,953.65
2018-12-13T18:18:24.366Z,953.59
2018-12-13T18:20:50.706Z,953.62
2018-12-13T18:23:16.991Z,953.61
2018-12-13T18:25:43.283Z,953.55
2018-12-13T18:28:09.625Z,953.58
2018-12-13T18:30:35.932Z,953.58
2018-12-13T18:33:02.220Z,953.58
2018-12-13T18:35:28.663Z,953.61
2018-12-13T18:37:54.945Z,953.53
2018-12-13T18:40:21.218Z,953.59
2018-12-13T18:42:47.520Z,953.60
2018-12-13T18:45:13.823Z,953.61
2018-12-13T18:47:40.101Z,953.67
2018-12-13T18:50:06.413Z,953.67
2018-12-13T18:52:32.712Z,953.56
2018-12-13T18:54:59.002Z,953.66
2018-12-13T18:57:25.077Z,953.60
2018-12-13T18:59:51.374Z,953.57
2018-12-13T19:02:17.661Z,953.68
2018-12-13T19:04:43.950Z,953.61
2018-12-13T19:07:10.244Z,953.72
2018-12-13T19:09:36.545Z,953.76
2018-12-13T19:12:02.848Z,953.82
2018-12-13T19:14:29.124Z,953.86
2018-12-13T19:16:55.425Z,953.89
2018-12-13T19:19:21.695Z,953.79
2018-12-13T19:21:47.984Z,953.83
2018-12-13T19:24:14.314Z,953.79
2018-12-13T19:26:40.621Z,953.76
2018-12-13T19:29:06.965Z,953.69
2018-12-13T19:31:33.248Z,953.70
2018-12-13T19:33:59.537Z,953.68
2018-12-13T19:36:25.907Z,953.69
2018-12-13T19:38:52.178Z,953.80
2018-12-13T19:41:18.509Z,953.72
2018-12-13T19:43:44.779Z,953.85
2018-12-13T19:46:11.094Z,953.93
2018-12-13T19:48:37.368Z,953.85
2018-12-13T19:51:03.644Z,953.93
2018-12-13T19:53:29.949Z,953.80
2018-12-13T19:55:56.240Z,953.68
2018-12-13T19:58:22.584Z,953.64
2018-12-13T20:00:48.868Z,953.75
2018-12-13T20:03:15.164Z,953.95
2018-12-13T20:05:41.555Z,953.94
2018-12-13T20:08:07.847Z,953.85
2018-12-13T20:10:34.110Z,953.86
2018-12-13T20:13:00.405Z,953.91
2018-12-13T20:15:26.695Z,953.80
2018-12-13T20:17:53.024Z,953.80
2018-12-13T20:20:19.296Z,953.75
2018-12-13T20:22:45.569Z,953.72
2018-12-13T20:25:11.859Z,953.65
2018-12-13T20:27:38.132Z,953.66
2018-12-13T20:30:04.408Z,953.68
2018-12-13T20:32:30.708Z,953.65
2018-12-13T20:34:57.041Z,953.65
2018-12-13T20:37:23.349Z,953.59
2018-12-13T20:39:49.626Z,953.52
2018-12-13T20:42:15.964Z,953.51
2018-12-13T20:44:42.265Z,953.47
2018-12-13T20:47:08.553Z,953.56
2018-12-13T20:49:34.842Z,953.49
2018-12-13T20:52:01.137Z,953.55
2018-12-13T20:54:27.430Z,953.49
2018-12-13T20:56:53.722Z,953.48
2018-12-13T20:59:20.002Z,953.51
2018-12-13T21:01:46.317Z,953.49
2018-12-13T21:04:12.595Z,953.53
2018-12-13T21:06:38.898Z,953.53
2018-12-13T21:09:05.175Z,953.47
2018-12-13T21:11:31.489Z,953.42
2018-12-13T21:13:57.779Z,953.44
2018-12-13T21:16:24.078Z,953.54
2018-12-13T21:18:50.375Z,953.42
2018-12-13T21:21:16.653Z,953.36
2018-12-13T21:23:42.950Z,953.43
2018-12-13T21:26:09.261Z,953.45
2018-12-13T21:28:35.619Z,953.48
2018-12-13T21:31:01.932Z,953.43
2018-12-13T21:33:28.215Z,953.47
2018-12-13T21:35:54.517Z,953.44
2018-12-13T21:38:20.824Z,953.40
2018-12-13T21:40:47.131Z,953.46
2018-12-13T21:43:14.673Z,953.52
2018-12-13T21:45:40.974Z,953.59
2018-12-13T21:48:10.605Z,953.58
2018-12-13T21:50:36.888Z,953.54
2018-12-13T21:53:03.189Z,953.53
2018-12-13T21:55:29.488Z,953.52
2018-12-13T21:57:55.768Z,953.51
2018-12-13T22:00:22.043Z,953.47
2018-12-13T22:02:48.326Z,953.49
2018-12-13T22:05:14.636Z,953.44
2018-12-13T22:07:40.920Z,953.40
2018-12-13T22:10:07.203Z,953.47
2018-12-13T22:12:33.496Z,953.49
2018-12-13T22:15:02.582Z,953.46
2018-12-13T22:17:26.073Z,953.44
2018-12-13T22:19:52.366Z,953.40
2018-12-13T22:22:18.701Z,953.36
2018-12-13T22:24:44.997Z,953.34
2018-12-13T22:27:11.297Z,953.34
2018-12-13T22:29:37.572Z,953.32
2018-12-13T22:32:03.875Z,953.30
2018-12-13T22:34:30.165Z,953.26
2018-12-13T22:36:56.447Z,953.25
2018-12-13T22:39:22.739Z,953.21
2018-12-13T22:41:49.035Z,953.20
2018-12-13T22:44:15.325Z,953.14
2018-12-13T22:46:41.640Z,953.06
2018-12-13T22:49:07.930Z,953.14
2018-12-13T22:51:34.205Z,953.24
2018-12-13T22:54:00.487Z,953.07
2018-12-13T22:56:26.795Z,952.90
2018-12-13T22:58:53.087Z,952.93
2018-12-13T23:01:19.360Z,953.11
2018-12-13T23:03:45.652Z,953.21
2018-12-13T23:06:11.941Z,953.06
2018-12-13T23:08:38.216Z,953.07
2018-12-13T23:11:04.514Z,953.27
2018-12-13T23:13:30.801Z,953.31
2018-12-13T23:15:57.085Z,953.31
2018-12-13T23:18:23.432Z,953.29
2018-12-13T23:20:49.660Z,953.20
2018-12-13T23:23:15.958Z,953.28
2018-12-13T23:25:42.230Z,953.34
2018-12-13T23:28:08.514Z,953.30
2018-12-13T23:30:34.820Z,953.27
2018-12-13T23:33:01.117Z,953.25
2018-12-13T23:35:27.431Z,953.23
2018-12-13T23:37:53.706Z,953.24
2018-12-13T23:40:19.981Z,953.22
2018-12-13T23:42:46.274Z,953.29
2018-12-13T23:45:12.555Z,953.33
2018-12-13T23:47:38.837Z,953.35
2018-12-13T23:50:05.120Z,953.22
2018-12-13T23:52:31.401Z,953.24
2018-12-13T23:54:57.692Z,953.38
2018-12-13T23:57:23.988Z,953.49
2018-12-13T23:59:51.322Z,953.47
